createdAt,value
2023-01-19T00:00:09.963Z,-2.9
2023-01-19T00:03:10.009Z,-2.9
2023-01-19T00:06:10.145Z,-2.2
2023-01-19T00:09:09.773Z,-1.5
2023-01-19T00:12:10.033Z,-1.4
2023-01-19T00:15:09.819Z,-1.3
2023-01-19T00:18:12.049Z,-1.1
2023-01-19T00:21:09.805Z,-0.8
2023-01-19T00:24:09.848Z,-0.7
2023-01-19T00:27:09.713Z,-0.7
2023-01-19T00:30:09.907Z,-0.8
2023-01-19T00:33:10.956Z,-0.7
2023-01-19T00:36:09.868Z,-0.6
2023-01-19T00:39:09.733Z,-0.4
2023-01-19T00:42:09.791Z,-0.3
2023-01-19T00:45:09.845Z,-0.2
2023-01-19T00:48:09.836Z,0
2023-01-19T00:51:09.794Z,0.2
2023-01-19T00:54:09.896Z,0.2
2023-01-19T00:57:09.817Z,0.4
2023-01-19T01:00:09.886Z,0.5
2023-01-19T01:03:12.000Z,0.7
2023-01-19T01:06:09.726Z,0.7
2023-01-19T01:09:09.797Z,0.7
2023-01-19T01:12:10.558Z,0.6
2023-01-19T01:15:09.871Z,0.7
2023-01-19T01:18:09.825Z,0.7
2023-01-19T01:21:09.725Z,0.7
2023-01-19T01:24:09.825Z,0.7
2023-01-19T01:27:09.769Z,0.7
2023-01-19T01:30:09.924Z,0.6
2023-01-19T01:33:10.745Z,0.7
2023-01-19T01:36:09.768Z,0.7
2023-01-19T01:39:09.760Z,0.7
2023-01-19T01:42:09.832Z,0.7
2023-01-19T01:45:09.896Z,0.6
2023-01-19T01:48:09.844Z,0.6
2023-01-19T01:51:09.843Z,0.7
2023-01-19T01:54:09.839Z,0.7
2023-01-19T01:57:09.788Z,0.7
2023-01-19T02:00:09.812Z,0.7
2023-01-19T02:03:11.272Z,0.7
2023-01-19T02:06:09.904Z,0.7
2023-01-19T02:09:09.838Z,0.7
2023-01-19T02:12:09.741Z,0.7
2023-01-19T02:15:09.779Z,0.5
2023-01-19T02:18:09.715Z,0.6
2023-01-19T02:21:09.773Z,0.5
2023-01-19T02:24:09.803Z,0.6
2023-01-19T02:27:09.712Z,0.5
2023-01-19T02:30:09.794Z,0.4
2023-01-19T02:33:10.628Z,0.5
2023-01-19T02:36:09.755Z,0.4
2023-01-19T02:39:09.770Z,0.6
2023-01-19T02:42:09.788Z,0.4
2023-01-19T02:45:09.880Z,0.4
2023-01-19T02:48:09.757Z,0.4
2023-01-19T02:51:09.787Z,0.5
2023-01-19T02:54:09.733Z,0.4
2023-01-19T02:57:09.764Z,0.4
2023-01-19T03:00:09.874Z,0.4
2023-01-19T03:03:11.372Z,0.4
2023-01-19T03:06:09.773Z,0.4
2023-01-19T03:09:09.771Z,0.4
2023-01-19T03:12:09.848Z,0.4
2023-01-19T03:15:10.248Z,0.4
2023-01-19T03:18:09.845Z,0.5
2023-01-19T03:21:09.720Z,0.5
2023-01-19T03:24:09.840Z,0.4
2023-01-19T03:27:09.989Z,0.4
2023-01-19T03:30:09.814Z,0.4
2023-01-19T03:33:10.845Z,0.4
2023-01-19T03:36:09.798Z,0.4
2023-01-19T03:39:09.827Z,0.4
2023-01-19T03:42:09.829Z,0.6
2023-01-19T03:45:09.813Z,0.6
2023-01-19T03:48:09.816Z,0.6
2023-01-19T03:51:09.786Z,0.7
2023-01-19T03:54:09.824Z,0.7
2023-01-19T03:57:09.746Z,0.7
2023-01-19T04:00:09.954Z,0.6
2023-01-19T04:03:11.488Z,0.8
2023-01-19T04:06:09.828Z,0.9
2023-01-19T04:09:09.871Z,0.9
2023-01-19T04:12:09.773Z,0.9
2023-01-19T04:15:09.890Z,1
2023-01-19T04:18:09.785Z,0.9
2023-01-19T04:21:09.841Z,0.9
2023-01-19T04:24:09.814Z,0.9
2023-01-19T04:27:09.753Z,1.1
2023-01-19T04:30:09.841Z,1
2023-01-19T04:33:11.094Z,1
2023-01-19T04:36:09.814Z,1
2023-01-19T04:39:09.889Z,0.9
2023-01-19T04:42:09.773Z,0.9
2023-01-19T04:45:09.746Z,0.8
2023-01-19T04:48:09.830Z,0.8
2023-01-19T04:51:09.805Z,0.8
2023-01-19T04:54:10.017Z,0.7
2023-01-19T04:57:09.754Z,0.7
2023-01-19T05:00:09.890Z,0.7
2023-01-19T05:03:11.678Z,0.7
2023-01-19T05:06:09.762Z,0.6
2023-01-19T05:09:09.753Z,0.5
2023-01-19T05:12:09.783Z,0.4
2023-01-19T05:15:09.776Z,0.4
2023-01-19T05:18:09.747Z,0.6
2023-01-19T05:21:09.768Z,0.6
2023-01-19T05:24:09.803Z,0.4
2023-01-19T05:27:09.758Z,0.4
2023-01-19T05:30:09.766Z,0.2
2023-01-19T05:33:10.686Z,0
2023-01-19T05:36:09.761Z,-0.1
2023-01-19T05:39:09.735Z,-0.2
2023-01-19T05:42:09.788Z,-0.2
2023-01-19T05:45:09.853Z,-0.2
2023-01-19T05:48:11.616Z,-0.1
2023-01-19T05:51:09.790Z,0
2023-01-19T05:54:09.852Z,0.1
2023-01-19T05:57:09.822Z,0.1
2023-01-19T06:00:09.844Z,0
2023-01-19T06:03:11.604Z,0.1
2023-01-19T06:06:09.793Z,0.2
2023-01-19T06:09:09.767Z,0.1
2023-01-19T06:12:09.764Z,0.2
2023-01-19T06:15:10.029Z,0.3
2023-01-19T06:18:09.800Z,0.4
2023-01-19T06:21:09.796Z,0.5
2023-01-19T06:24:09.763Z,0.6
2023-01-19T06:27:09.791Z,0.7
2023-01-19T06:30:09.935Z,0.8
2023-01-19T06:33:10.827Z,0.9
2023-01-19T06:36:09.975Z,0.9
2023-01-19T06:39:09.743Z,0.9
2023-01-19T06:42:09.844Z,1.1
2023-01-19T06:45:09.751Z,1.1
2023-01-19T06:48:09.980Z,0.9
2023-01-19T06:51:09.788Z,0.7
2023-01-19T06:54:09.842Z,0.8
2023-01-19T06:57:12.394Z,0.8
2023-01-19T07:00:10.183Z,0.8
2023-01-19T07:03:11.694Z,0.8
2023-01-19T07:06:09.756Z,0.7
2023-01-19T07:09:09.829Z,0.7
2023-01-19T07:12:09.882Z,0.6
2023-01-19T07:15:09.842Z,0.6
2023-01-19T07:18:09.811Z,0.6
2023-01-19T07:21:09.827Z,0.6
2023-01-19T07:24:09.852Z,0.7
2023-01-19T07:27:09.864Z,0.7
2023-01-19T07:30:09.944Z,0.7
2023-01-19T07:33:10.985Z,0.8
2023-01-19T07:36:09.847Z,0.9
2023-01-19T07:39:09.913Z,0.8
2023-01-19T07:42:10.577Z,0.7
2023-01-19T07:45:09.829Z,0.7
2023-01-19T07:48:09.898Z,0.8
2023-01-19T07:51:12.684Z,0.7
2023-01-19T07:54:09.774Z,0.7
2023-01-19T07:57:09.969Z,0.7
2023-01-19T08:00:10.099Z,0.7
2023-01-19T08:03:11.393Z,0.7
2023-01-19T08:06:09.988Z,0.7
2023-01-19T08:09:10.166Z,0.7
2023-01-19T08:12:09.825Z,0.7
2023-01-19T08:15:09.967Z,0.7
2023-01-19T08:18:09.871Z,0.7
2023-01-19T08:21:09.824Z,0.9
2023-01-19T08:24:10.293Z,1
2023-01-19T08:27:11.123Z,1.2
2023-01-19T08:30:10.381Z,1.2
2023-01-19T08:33:11.236Z,1.3
2023-01-19T08:36:09.817Z,1.5
2023-01-19T08:39:09.851Z,1.6
2023-01-19T08:42:09.970Z,1.7
2023-01-19T08:45:09.870Z,1.7
2023-01-19T08:48:09.838Z,1.8
2023-01-19T08:51:09.965Z,1.8
2023-01-19T08:54:09.800Z,1.9
2023-01-19T08:57:09.893Z,1.9
2023-01-19T09:00:09.990Z,0
2023-01-19T09:03:11.947Z,0
2023-01-19T09:06:09.963Z,0.2
2023-01-19T09:09:09.755Z,0.4
2023-01-19T09:12:09.959Z,0.4
2023-01-19T09:15:10.190Z,0.6
2023-01-19T09:18:10.823Z,0.9
2023-01-19T09:21:09.803Z,1.1
2023-01-19T09:24:09.834Z,1.1
2023-01-19T09:27:09.914Z,1.1
2023-01-19T09:30:09.919Z,1.2
2023-01-19T09:33:09.816Z,1.2
2023-01-19T09:36:09.776Z,1.2
2023-01-19T09:39:09.819Z,1.3
2023-01-19T09:42:09.846Z,1.4
2023-01-19T09:45:12.085Z,1.6
2023-01-19T09:48:10.939Z,1.7
2023-01-19T09:51:09.880Z,1.9
2023-01-19T09:54:10.037Z,1.8
2023-01-19T09:57:09.779Z,1.7
2023-01-19T10:00:09.962Z,1.6
2023-01-19T10:03:11.128Z,1.6
2023-01-19T10:06:09.870Z,1.7
2023-01-19T10:09:09.805Z,1.7
2023-01-19T10:12:09.887Z,1.6
2023-01-19T10:15:09.843Z,1.6
2023-01-19T10:18:10.945Z,1.5
2023-01-19T10:21:12.646Z,1.5
2023-01-19T10:24:12.427Z,1.4
2023-01-19T10:27:09.853Z,1.4
2023-01-19T10:30:10.120Z,1.4
2023-01-19T10:33:11.114Z,1.4
2023-01-19T10:36:10.008Z,1.4
2023-01-19T10:39:09.966Z,1.3
2023-01-19T10:42:10.067Z,1.3
2023-01-19T10:45:10.129Z,1.3
2023-01-19T10:48:10.064Z,1.4
2023-01-19T10:51:10.128Z,1.5
2023-01-19T10:54:10.075Z,1.6
2023-01-19T10:57:09.947Z,1.7
2023-01-19T11:00:10.029Z,1.9
2023-01-19T11:03:12.175Z,2.1
2023-01-19T11:06:09.823Z,2.2
2023-01-19T11:09:09.798Z,2.3
2023-01-19T11:12:09.764Z,2.2
2023-01-19T11:15:09.778Z,2.3
2023-01-19T11:18:09.901Z,2.3
2023-01-19T11:21:09.883Z,2.2
2023-01-19T11:24:09.913Z,2.2
2023-01-19T11:27:09.791Z,2.2
2023-01-19T11:30:09.970Z,2.2
2023-01-19T11:33:10.700Z,2.2
2023-01-19T11:36:09.746Z,2.3
2023-01-19T11:39:09.809Z,2.4
2023-01-19T11:42:09.900Z,2.4
2023-01-19T11:45:09.968Z,2.2
2023-01-19T11:48:11.057Z,2.1
2023-01-19T11:51:09.878Z,2.2
2023-01-19T11:54:09.790Z,2.3
2023-01-19T11:57:09.935Z,2.3
2023-01-19T12:00:09.807Z,2.3
2023-01-19T12:03:10.394Z,2.4
2023-01-19T12:06:09.813Z,2.3
2023-01-19T12:09:09.853Z,2.4
2023-01-19T12:12:09.892Z,2.5
2023-01-19T12:15:10.081Z,2.6
2023-01-19T12:18:11.104Z,2.7
2023-01-19T12:21:13.310Z,2.7
2023-01-19T12:24:10.116Z,2.7
2023-01-19T12:27:09.927Z,2.7
2023-01-19T12:30:10.088Z,2.7
2023-01-19T12:33:09.815Z,2.7
2023-01-19T12:36:10.080Z,2.9
2023-01-19T12:39:09.889Z,3
2023-01-19T12:42:09.828Z,3.1
2023-01-19T12:45:09.932Z,2.9
2023-01-19T12:48:09.924Z,2.9
2023-01-19T12:51:09.843Z,2.8
2023-01-19T12:54:10.938Z,2.7
2023-01-19T12:57:09.886Z,2.6
2023-01-19T13:00:10.135Z,2.6
2023-01-19T13:03:10.108Z,2.6
2023-01-19T13:06:09.833Z,2.6
2023-01-19T13:09:09.846Z,2.5
2023-01-19T13:12:10.292Z,2.4
2023-01-19T13:15:10.339Z,2.3
2023-01-19T13:18:09.848Z,2.2
2023-01-19T13:21:09.800Z,2.1
2023-01-19T13:24:09.942Z,2
2023-01-19T13:27:09.941Z,1.9
2023-01-19T13:30:11.085Z,1.9
2023-01-19T13:33:09.883Z,1.8
2023-01-19T13:36:09.936Z,1.8
2023-01-19T13:39:09.967Z,1.6
2023-01-19T13:42:09.843Z,1.5
2023-01-19T13:45:09.863Z,1.5
2023-01-19T13:48:09.919Z,1.4
2023-01-19T13:51:09.833Z,1.4
2023-01-19T13:54:09.943Z,1.3
2023-01-19T13:57:10.072Z,1.3
2023-01-19T14:00:10.809Z,1.3
2023-01-19T14:03:10.252Z,1.1
2023-01-19T14:06:10.222Z,1
2023-01-19T14:09:10.152Z,0.9
2023-01-19T14:12:09.926Z,0.8
2023-01-19T14:15:10.914Z,0.7
2023-01-19T14:18:10.162Z,0.6
2023-01-19T14:21:10.129Z,0.6
2023-01-19T14:24:09.862Z,0.6
2023-01-19T14:27:09.854Z,0.6
2023-01-19T14:30:09.938Z,0.6
2023-01-19T14:33:09.914Z,0.6
2023-01-19T14:36:09.835Z,0.7
2023-01-19T14:39:09.869Z,0.8
2023-01-19T14:42:10.070Z,0.8
2023-01-19T14:45:11.443Z,0.8
2023-01-19T14:48:09.928Z,0.8
2023-01-19T14:51:12.774Z,0.9
2023-01-19T14:54:09.914Z,0.9
2023-01-19T14:57:09.853Z,0.9
2023-01-19T15:00:10.305Z,0.9
2023-01-19T15:03:09.834Z,0.9
2023-01-19T15:06:13.130Z,0.9
2023-01-19T15:09:09.763Z,0.9
2023-01-19T15:12:09.829Z,0.9
2023-01-19T15:15:11.307Z,0.9
2023-01-19T15:18:10.005Z,0.9
2023-01-19T15:21:09.849Z,1
2023-01-19T15:24:09.973Z,1
2023-01-19T15:27:09.835Z,1
2023-01-19T15:30:09.997Z,1
2023-01-19T15:33:09.931Z,1
2023-01-19T15:36:09.920Z,1
2023-01-19T15:39:10.105Z,1.1
2023-01-19T15:42:09.757Z,1.1
2023-01-19T15:45:10.359Z,1.1
2023-01-19T15:48:09.830Z,1
2023-01-19T15:51:09.855Z,1
2023-01-19T15:54:09.822Z,0.9
2023-01-19T15:57:09.810Z,0.9
2023-01-19T16:00:09.899Z,0.9
2023-01-19T16:03:10.018Z,0.9
2023-01-19T16:06:09.783Z,0.9
2023-01-19T16:09:09.908Z,0.8
2023-01-19T16:12:09.785Z,0.8
2023-01-19T16:15:10.661Z,0.8
2023-01-19T16:18:09.866Z,0.8
2023-01-19T16:21:09.807Z,0.7
2023-01-19T16:24:09.814Z,0.6
2023-01-19T16:27:09.774Z,0.6
2023-01-19T16:30:10.349Z,0.5
2023-01-19T16:33:09.773Z,0.4
2023-01-19T16:36:09.743Z,0.3
2023-01-19T16:39:09.874Z,0.4
2023-01-19T16:42:10.056Z,0.3
2023-01-19T16:45:09.781Z,0.3
2023-01-19T16:48:09.809Z,0.3
2023-01-19T16:51:09.758Z,0.3
2023-01-19T16:54:09.925Z,0.3
2023-01-19T16:57:09.906Z,0.3
2023-01-19T17:00:10.408Z,0.3
2023-01-19T17:03:10.230Z,0.3
2023-01-19T17:06:09.833Z,0.2
2023-01-19T17:09:09.790Z,0.1
2023-01-19T17:12:09.878Z,0.1
2023-01-19T17:15:09.892Z,0.1
2023-01-19T17:18:09.834Z,0
2023-01-19T17:21:09.833Z,0
2023-01-19T17:24:09.893Z,0.1
2023-01-19T17:27:09.967Z,0.1
2023-01-19T17:30:10.363Z,0.1
2023-01-19T17:33:09.958Z,0.1
2023-01-19T17:36:09.759Z,0.1
2023-01-19T17:39:09.831Z,0.1
2023-01-19T17:42:09.813Z,0.1
2023-01-19T17:45:09.828Z,0.2
2023-01-19T17:48:09.783Z,0.2
2023-01-19T17:51:09.870Z,0.2
2023-01-19T17:54:09.809Z,0.2
2023-01-19T17:57:09.813Z,0.2
2023-01-19T18:00:10.273Z,0.2
2023-01-19T18:03:10.293Z,0.1
2023-01-19T18:06:09.975Z,0.1
2023-01-19T18:09:10.095Z,0.1
2023-01-19T18:12:09.780Z,0.1
2023-01-19T18:15:09.971Z,0.1
2023-01-19T18:18:09.833Z,0
2023-01-19T18:21:09.951Z,1.9
2023-01-19T18:24:10.021Z,1.9
2023-01-19T18:27:09.841Z,0
2023-01-19T18:30:11.509Z,1.9
2023-01-19T18:33:09.980Z,1.9
2023-01-19T18:36:10.039Z,0
2023-01-19T18:39:09.907Z,0
2023-01-19T18:42:09.791Z,0
2023-01-19T18:45:09.987Z,0
2023-01-19T18:48:10.235Z,0
2023-01-19T18:51:10.161Z,0
2023-01-19T18:54:09.936Z,0
2023-01-19T18:57:09.914Z,0.1
2023-01-19T19:00:10.023Z,0
2023-01-19T19:03:10.029Z,1.9
2023-01-19T19:06:10.383Z,1.9
2023-01-19T19:09:09.856Z,1.9
2023-01-19T19:12:09.909Z,1.9
2023-01-19T19:15:10.067Z,1.9
2023-01-19T19:18:09.803Z,1.9
2023-01-19T19:21:09.780Z,1.8
2023-01-19T19:24:09.827Z,1.8
2023-01-19T19:27:09.839Z,1.8
2023-01-19T19:30:09.922Z,1.8
2023-01-19T19:33:09.894Z,1.7
2023-01-19T19:36:09.879Z,1.7
2023-01-19T19:39:09.813Z,1.6
2023-01-19T19:42:09.825Z,1.7
2023-01-19T19:45:09.795Z,1.7
2023-01-19T19:48:09.788Z,1.7
2023-01-19T19:51:27.907Z,1.7
2023-01-19T19:54:09.769Z,1.7
2023-01-19T19:57:09.821Z,1.7
2023-01-19T20:00:09.847Z,1.8
2023-01-19T20:03:09.915Z,1.7
2023-01-19T20:06:09.811Z,1.8
2023-01-19T20:09:09.755Z,1.7
2023-01-19T20:12:09.836Z,1.7
2023-01-19T20:15:09.902Z,1.7
2023-01-19T20:18:09.849Z,1.6
2023-01-19T20:21:10.036Z,1.6
2023-01-19T20:24:09.921Z,1.6
2023-01-19T20:27:09.784Z,1.7
2023-01-19T20:30:09.881Z,1.7
2023-01-19T20:33:09.806Z,1.7
2023-01-19T20:36:09.827Z,1.7
2023-01-19T20:39:09.783Z,1.7
2023-01-19T20:42:09.818Z,1.6
2023-01-19T20:45:10.036Z,1.6
2023-01-19T20:48:09.850Z,1.6
2023-01-19T20:51:09.941Z,1.4
2023-01-19T20:54:10.914Z,1.4
2023-01-19T20:57:09.741Z,1.4
2023-01-19T21:00:09.925Z,1.4
2023-01-19T21:03:09.728Z,1.4
2023-01-19T21:06:09.888Z,1.4
2023-01-19T21:09:09.804Z,1.4
2023-01-19T21:12:09.825Z,1.4
2023-01-19T21:15:09.754Z,1.3
2023-01-19T21:18:09.922Z,1.3
2023-01-19T21:21:29.240Z,1.2
2023-01-19T21:24:09.952Z,1.4
2023-01-19T21:27:09.803Z,1.3
2023-01-19T21:30:09.929Z,1.4
2023-01-19T21:33:09.832Z,1.4
2023-01-19T21:36:09.791Z,1.4
2023-01-19T21:39:10.255Z,1.3
2023-01-19T21:42:09.787Z,1.3
2023-01-19T21:45:10.037Z,1.3
2023-01-19T21:48:09.781Z,1.3
2023-01-19T21:51:09.894Z,1.2
2023-01-19T21:54:09.817Z,1.2
2023-01-19T21:57:09.756Z,1.2
2023-01-19T22:00:09.985Z,1.2
2023-01-19T22:03:14.082Z,1.2
2023-01-19T22:06:09.801Z,1.1
2023-01-19T22:09:10.025Z,1.1
2023-01-19T22:12:09.782Z,1.1
2023-01-19T22:15:09.873Z,1.1
2023-01-19T22:18:09.785Z,1.1
2023-01-19T22:21:09.867Z,1
2023-01-19T22:24:09.870Z,0.9
2023-01-19T22:27:09.776Z,0.9
2023-01-19T22:30:09.884Z,0.9
2023-01-19T22:33:09.886Z,1
2023-01-19T22:36:09.853Z,1
2023-01-19T22:39:09.808Z,1
2023-01-19T22:42:09.796Z,0.9
2023-01-19T22:45:09.844Z,0.8
2023-01-19T22:48:09.847Z,0.8
2023-01-19T22:51:09.958Z,0.7
2023-01-19T22:54:09.981Z,0.7
2023-01-19T22:57:09.834Z,0.6
2023-01-19T23:00:10.629Z,0.7
2023-01-19T23:03:09.780Z,0.7
2023-01-19T23:06:09.894Z,0.7
2023-01-19T23:09:09.801Z,0.7
2023-01-19T23:12:09.742Z,0.8
2023-01-19T23:15:09.777Z,0.9
2023-01-19T23:18:09.805Z,0.9
2023-01-19T23:21:09.801Z,0.9
2023-01-19T23:24:09.837Z,0.9
2023-01-19T23:27:09.776Z,1
2023-01-19T23:30:10.062Z,1
2023-01-19T23:33:09.733Z,1.1
2023-01-19T23:36:09.808Z,1
2023-01-19T23:39:09.918Z,0.9
2023-01-19T23:42:09.783Z,1
2023-01-19T23:45:09.798Z,0.9
2023-01-19T23:48:09.931Z,1
2023-01-19T23:51:09.728Z,1
2023-01-19T23:54:09.908Z,0.9
2023-01-19T23:57:09.750Z,0.8
